createdAt,value
2017-08-15T00:00:02.590Z,0
2017-08-15T00:05:03.053Z,0
2017-08-15T00:10:02.644Z,0
2017-08-15T00:15:03.396Z,0
2017-08-15T00:20:02.824Z,0
2017-08-15T00:25:03.499Z,0
2017-08-15T00:30:03.205Z,0
2017-08-15T00:35:02.661Z,0
2017-08-15T00:40:03.273Z,0
2017-08-15T00:45:02.761Z,0
2017-08-15T00:50:03.374Z,0
2017-08-15T00:55:02.945Z,0
2017-08-15T01:00:03.527Z,0
2017-08-15T01:05:02.924Z,0
2017-08-15T01:10:02.674Z,0
2017-08-15T01:15:03.277Z,0
2017-08-15T01:20:02.753Z,0
2017-08-15T01:25:03.273Z,0
2017-08-15T01:30:02.827Z,0
2017-08-15T01:35:03.359Z,0
2017-08-15T01:40:02.789Z,0
2017-08-15T01:45:03.216Z,0
2017-08-15T01:50:02.799Z,0
2017-08-15T01:55:02.516Z,0
2017-08-15T02:00:03.039Z,0
2017-08-15T02:05:03.434Z,0
2017-08-15T02:10:03.036Z,0
2017-08-15T02:15:02.520Z,0
2017-08-15T02:20:02.998Z,0
2017-08-15T02:25:03.440Z,0
2017-08-15T02:30:03.129Z,0
2017-08-15T02:35:02.601Z,0
2017-08-15T02:40:03.068Z,0
2017-08-15T02:45:02.717Z,0
2017-08-15T02:50:03.275Z,0
2017-08-15T02:55:02.828Z,0
2017-08-15T03:00:03.395Z,0
2017-08-15T03:05:02.816Z,0
2017-08-15T03:10:02.497Z,0
2017-08-15T03:15:03.569Z,0
2017-08-15T03:20:03.046Z,0
2017-08-15T03:25:02.442Z,0
2017-08-15T03:30:03.169Z,0
2017-08-15T03:35:02.626Z,0
2017-08-15T03:40:03.302Z,0
2017-08-15T03:45:02.732Z,2
2017-08-15T03:50:03.182Z,4
2017-08-15T03:55:02.699Z,4
2017-08-15T04:00:03.278Z,14
2017-08-15T04:05:02.730Z,27
2017-08-15T04:10:03.002Z,54
2017-08-15T04:15:03.043Z,69
2017-08-15T04:20:03.112Z,91
2017-08-15T04:25:03.158Z,138
2017-08-15T04:30:03.264Z,265
2017-08-15T04:35:03.006Z,483
2017-08-15T04:40:03.192Z,560
2017-08-15T04:45:03.207Z,633
2017-08-15T04:50:03.342Z,698
2017-08-15T04:55:03.441Z,774
2017-08-15T05:00:03.442Z,903
2017-08-15T05:05:03.475Z,1000
2017-08-15T05:10:02.582Z,1000
2017-08-15T05:15:02.697Z,1000
2017-08-15T05:20:02.871Z,2000
2017-08-15T05:25:02.927Z,3000
2017-08-15T05:30:03.131Z,3000
2017-08-15T05:35:03.200Z,3000
2017-08-15T05:40:02.641Z,3000
2017-08-15T05:45:03.083Z,2000
2017-08-15T05:50:02.532Z,2000
2017-08-15T05:55:03.025Z,2000
2017-08-15T06:00:02.450Z,2000
2017-08-15T06:05:02.868Z,3000
2017-08-15T06:10:02.501Z,3000
2017-08-15T06:15:02.908Z,3000
2017-08-15T06:20:02.427Z,3000
2017-08-15T06:25:02.986Z,3000
2017-08-15T06:30:02.490Z,3000
2017-08-15T06:35:03.082Z,3000
2017-08-15T06:40:02.540Z,5000
2017-08-15T06:45:02.956Z,5000
2017-08-15T06:50:02.502Z,7000
2017-08-15T06:55:03.030Z,7000
2017-08-15T07:00:03.415Z,7000
2017-08-15T07:05:02.966Z,6000
2017-08-15T07:10:02.445Z,6000
2017-08-15T07:15:02.910Z,5000
2017-08-15T07:20:02.519Z,5000
2017-08-15T07:25:03.021Z,5000
2017-08-15T07:30:03.460Z,5000
2017-08-15T07:35:03.034Z,6000
2017-08-15T07:40:02.525Z,7000
2017-08-15T07:45:03.066Z,8000
2017-08-15T07:50:02.461Z,8000
2017-08-15T07:55:02.847Z,9000
2017-08-15T08:00:03.333Z,8000
2017-08-15T08:05:02.781Z,7000
2017-08-15T08:10:03.373Z,6000
2017-08-15T08:15:02.922Z,5000
2017-08-15T08:20:03.417Z,4000
2017-08-15T08:25:02.891Z,4000
2017-08-15T08:30:03.309Z,5000
2017-08-15T08:35:02.711Z,6000
2017-08-15T08:40:03.357Z,5000
2017-08-15T08:45:02.911Z,4000
2017-08-15T08:50:03.411Z,4000
2017-08-15T08:55:02.842Z,4000
2017-08-15T09:00:03.412Z,5000
2017-08-15T09:05:02.847Z,5000
2017-08-15T09:10:03.405Z,4000
2017-08-15T09:15:02.990Z,4000
2017-08-15T09:20:02.467Z,4000
2017-08-15T09:25:02.911Z,4000
2017-08-15T09:30:02.519Z,3000
2017-08-15T09:35:03.103Z,3000
2017-08-15T09:40:02.732Z,3000
2017-08-15T09:45:03.316Z,3000
2017-08-15T09:50:02.860Z,4000
2017-08-15T09:55:03.440Z,5000
2017-08-15T10:00:02.943Z,5000
2017-08-15T10:05:03.333Z,5000
2017-08-15T10:10:02.860Z,5000
2017-08-15T10:15:02.457Z,6000
2017-08-15T10:20:02.953Z,6000
2017-08-15T10:25:03.336Z,10000
2017-08-15T10:30:02.858Z,12000
2017-08-15T10:35:03.295Z,12000
2017-08-15T10:40:02.766Z,13000
2017-08-15T10:45:03.189Z,16000
2017-08-15T10:50:02.650Z,20000
2017-08-15T10:55:03.091Z,24000
2017-08-15T11:00:02.564Z,22000
2017-08-15T11:05:03.124Z,51000
2017-08-15T11:10:02.591Z,50000
2017-08-15T11:15:03.104Z,52000
2017-08-15T11:20:02.590Z,47000
2017-08-15T11:25:03.044Z,49000
2017-08-15T11:30:03.444Z,39000
2017-08-15T11:35:02.933Z,36000
2017-08-15T11:40:03.433Z,35000
2017-08-15T11:45:02.926Z,33000
2017-08-15T11:50:02.495Z,49000
2017-08-15T11:55:03.097Z,22000
2017-08-15T12:00:02.525Z,31000
2017-08-15T12:05:03.067Z,48000
2017-08-15T12:10:02.992Z,47000
2017-08-15T12:15:03.419Z,47000
2017-08-15T12:20:03.064Z,29000
2017-08-15T12:25:02.600Z,19000
2017-08-15T12:30:03.186Z,16000
2017-08-15T12:35:02.674Z,10000
2017-08-15T12:40:03.272Z,11000
2017-08-15T12:45:02.799Z,12000
2017-08-15T12:50:03.380Z,9000
2017-08-15T12:55:03.027Z,42000
2017-08-15T13:00:02.463Z,18000
2017-08-15T13:05:03.010Z,22000
2017-08-15T13:10:02.567Z,16000
2017-08-15T13:15:03.023Z,31000
2017-08-15T13:20:02.525Z,24000
2017-08-15T13:25:02.928Z,21000
2017-08-15T13:30:02.565Z,12000
2017-08-15T13:35:03.107Z,8000
2017-08-15T13:40:02.667Z,8000
2017-08-15T13:45:03.234Z,3000
2017-08-15T13:50:02.775Z,2000
2017-08-15T13:55:03.303Z,1000
2017-08-15T14:00:02.777Z,1000
2017-08-15T14:05:03.176Z,1000
2017-08-15T14:10:02.619Z,1000
2017-08-15T14:15:03.199Z,1000
2017-08-15T14:20:02.670Z,2000
2017-08-15T14:25:03.222Z,1000
2017-08-15T14:30:02.743Z,2000
2017-08-15T14:35:03.349Z,2000
2017-08-15T14:40:02.920Z,4000
2017-08-15T14:45:03.402Z,5000
2017-08-15T14:50:02.835Z,6000
2017-08-15T14:55:03.390Z,6000
2017-08-15T15:00:02.837Z,2000
2017-08-15T15:05:03.332Z,1000
2017-08-15T15:10:02.926Z,729
2017-08-15T15:15:03.414Z,750
2017-08-15T15:20:02.852Z,911
2017-08-15T15:25:03.302Z,844
2017-08-15T15:30:02.923Z,824
2017-08-15T15:40:02.896Z,1000
2017-08-15T15:45:03.356Z,1000
2017-08-15T15:50:02.874Z,2000
2017-08-15T15:55:02.437Z,2000
2017-08-15T16:00:02.907Z,2000
2017-08-15T16:05:03.428Z,1000
2017-08-15T16:10:02.918Z,2000
2017-08-15T16:15:02.525Z,4000
2017-08-15T16:20:03.145Z,5000
2017-08-15T16:25:02.598Z,3000
2017-08-15T16:30:03.058Z,3000
2017-08-15T16:35:02.499Z,5000
2017-08-15T16:40:03.016Z,3000
2017-08-15T16:45:02.501Z,2000
2017-08-15T16:50:03.124Z,1000
2017-08-15T16:55:02.664Z,836
2017-08-15T17:00:03.128Z,882
2017-08-15T17:05:02.687Z,413
2017-08-15T17:10:03.267Z,391
2017-08-15T17:15:02.691Z,955
2017-08-15T17:20:03.321Z,909
2017-08-15T17:25:02.752Z,549
2017-08-15T17:30:03.331Z,463
2017-08-15T17:35:02.860Z,329
2017-08-15T17:40:03.424Z,304
2017-08-15T17:45:02.846Z,348
2017-08-15T17:50:03.300Z,410
2017-08-15T17:55:02.776Z,554
2017-08-15T18:05:02.934Z,846
2017-08-15T18:10:02.466Z,551
2017-08-15T18:15:03.054Z,288
2017-08-15T18:20:02.522Z,157
2017-08-15T18:25:02.953Z,131
2017-08-15T18:30:02.531Z,131
2017-08-15T18:35:03.006Z,51
2017-08-15T18:40:02.586Z,46
2017-08-15T18:45:02.984Z,66
2017-08-15T18:50:02.550Z,93
2017-08-15T18:55:03.040Z,216
2017-08-15T19:00:02.624Z,167
2017-08-15T19:05:03.204Z,77
2017-08-15T19:10:02.817Z,45
2017-08-15T19:15:03.319Z,27
2017-08-15T19:20:02.813Z,6
2017-08-15T19:25:03.221Z,1
2017-08-15T19:30:02.784Z,1
2017-08-15T19:35:03.323Z,1
2017-08-15T19:40:02.931Z,0
2017-08-15T19:45:03.398Z,0
2017-08-15T19:50:03.006Z,0
2017-08-15T19:55:03.429Z,0
2017-08-15T20:00:02.996Z,0
2017-08-15T20:05:02.598Z,0
2017-08-15T20:10:03.155Z,0
2017-08-15T20:15:02.691Z,0
2017-08-15T20:20:03.245Z,0
2017-08-15T20:25:02.765Z,0
2017-08-15T20:30:03.308Z,0
2017-08-15T20:35:02.734Z,0
2017-08-15T20:40:03.364Z,0
2017-08-15T20:45:02.813Z,0
2017-08-15T20:50:03.427Z,0
2017-08-15T20:55:02.964Z,0
2017-08-15T21:00:02.593Z,0
2017-08-15T21:05:03.060Z,0
2017-08-15T21:10:02.668Z,0
2017-08-15T21:15:03.237Z,0
2017-08-15T21:20:02.814Z,0
2017-08-15T21:25:03.412Z,0
2017-08-15T21:30:02.835Z,0
2017-08-15T21:35:03.285Z,0
2017-08-15T21:40:02.810Z,0
2017-08-15T21:45:03.223Z,0
2017-08-15T21:50:02.625Z,0
2017-08-15T21:55:03.191Z,0
2017-08-15T22:00:02.720Z,0
2017-08-15T22:05:03.283Z,0
2017-08-15T22:10:02.889Z,0
2017-08-15T22:15:02.428Z,0
2017-08-15T22:20:03.043Z,0
2017-08-15T22:25:03.432Z,0
2017-08-15T22:30:02.941Z,0
2017-08-15T22:35:03.411Z,0
2017-08-15T22:40:02.993Z,0
2017-08-15T22:45:02.530Z,0
2017-08-15T22:50:03.193Z,0
2017-08-15T22:55:02.702Z,0
2017-08-15T23:00:03.322Z,0
2017-08-15T23:05:02.627Z,0
2017-08-15T23:10:03.128Z,0
2017-08-15T23:15:02.569Z,0
2017-08-15T23:20:03.122Z,0
2017-08-15T23:25:02.652Z,0
2017-08-15T23:30:03.139Z,0
2017-08-15T23:35:02.741Z,0
2017-08-15T23:40:03.236Z,0
2017-08-15T23:45:02.641Z,0
2017-08-15T23:50:03.214Z,0
2017-08-15T23:55:02.748Z,0
